• Join FlightAware (Why Join?)
  • Login
  • US Flag 
10:55AM EDT


 

Airport Tracker/Info


-or-


 

Live Flight TrackerFlight Track Log ✈ AWE1578 ✈ 07-May-2013 ✈ KCLT - KPHL

Flight Track Log - Related Links

Times and Time Zones

All times are in EDT time to prevent confusion due to time zone crossing. See the AWE1578 flight status page for this flight to view local times or setup timezone preferences in your user account.

Time Position Orientation Groundspeed Altitude Reporting Facility
EDT Latitude Longitude Course Direction KTS MPH feet Rate Location/Type
03:18PM 35.0710 -80.7990 123° Southeast 284 327 7,900  Level FlightAware
03:23PM 35.2840 -80.4620 52° Northeast 363 418 16,800 2,220 Climbing FlightAware
03:23PM 35.3390 -80.3960 44° Northeast 376 433 19,000 2,640 Climbing FlightAware
03:24PM 35.3530 -80.3730 53° Northeast 378 435 20,600 1,200 Climbing FlightAware
03:25PM 35.3940 -80.3190 47° Northeast 378 435 20,600  Level FlightAware
03:25PM 35.4340 -80.2660 47° Northeast 378 435 20,600  Level FlightAware
03:26PM 35.4850 -80.1990 47° Northeast 378 435 20,600  Level FlightAware
03:27PM 35.5250 -80.1460 47° Northeast 378 435 20,600 2,820 Level FlightAware
03:27PM 35.4703 -79.8664 47° Northeast 391 450 24,400 3,660 Climbing Washington Center
03:28PM 35.4858 -79.7269 82° East 402 463 26,800 960 Climbing Washington Center
03:34PM 35.9130 -79.0220 82° East 473 544 31,000 660 Climbing FlightAware
03:35PM 35.9710 -78.9790 31° Northeast 473 544 31,000  Level FlightAware
03:35PM 36.0580 -78.9140 31° Northeast 472 543 31,000  Level FlightAware
03:36PM 36.1450 -78.8480 31° Northeast 471 542 31,000  Level FlightAware
03:37PM 36.2200 -78.7920 31° Northeast 472 543 31,000  Level FlightAware
03:38PM 36.3040 -78.7280 32° Northeast 470 541 31,000  Level FlightAware
03:38PM 36.3740 -78.6740 32° Northeast 468 539 31,000  Level FlightAware
03:39PM 36.4520 -78.6150 31° Northeast 466 536 31,000  Level FlightAware
03:40PM 36.5240 -78.5610 31° Northeast 466 536 31,000  Level FlightAware
03:40PM 36.5870 -78.5140 31° Northeast 466 536 31,000  Level FlightAware
03:41PM 36.6500 -78.4670 31° Northeast 466 536 31,000  Level FlightAware
03:42PM 36.7120 -78.4200 31° Northeast 466 536 31,000  Level FlightAware
03:42PM 36.7750 -78.3730 31° Northeast 466 536 31,000  Level FlightAware
03:43PM 36.8540 -78.3140 31° Northeast 466 536 31,000  Level FlightAware
03:44PM 36.9170 -78.2670 31° Northeast 466 536 31,000  Level FlightAware
03:44PM 36.9790 -78.2190 32° Northeast 466 536 31,000  Level FlightAware
03:45PM 37.0420 -78.1720 31° Northeast 466 536 31,000  Level FlightAware
03:46PM 37.1900 -78.0280 38° Northeast 447 514 31,000  Level FlightAware
03:47PM 37.2690 -77.9370 42° Northeast 446 513 31,000  Level FlightAware
03:47PM 37.3290 -77.8690 42° Northeast 446 513 31,000  Level FlightAware
03:48PM 37.3970 -77.7940 41° Northeast 447 514 31,000  Level FlightAware
03:49PM 37.4620 -77.7240 41° Northeast 449 517 31,000  Level FlightAware
03:49PM 37.5250 -77.6560 41° Northeast 449 517 31,000  Level FlightAware
03:50PM 37.5920 -77.5830 41° Northeast 452 520 31,000  Level FlightAware
03:51PM 37.6600 -77.5120 40° Northeast 452 520 31,000  Level FlightAware
03:52PM 37.7330 -77.4370 39° Northeast 455 524 31,000  Level FlightAware
03:52PM 37.8000 -77.3710 38° Northeast 454 522 31,000  Level FlightAware
03:53PM 37.8780 -77.2980 36° Northeast 459 528 31,000  Level FlightAware
03:54PM 37.9520 -77.2460 29° Northeast 469 540 31,000  Level FlightAware
03:54PM 38.0390 -77.1880 28° Northeast 468 539 31,000  Level FlightAware
03:55PM 38.1150 -77.1360 28° Northeast 467 537 31,000  Level FlightAware
03:56PM 38.1920 -77.0810 29° Northeast 465 535 31,000  Level FlightAware
03:56PM 38.2647 -77.0288 29° Northeast 463 533 31,000 -120 Level FlightAware ADS-B
03:57PM 38.3220 -76.9881 29° Northeast 460 529 30,900 -720 Descending FlightAware ADS-B
03:57PM 38.3830 -76.9443 29° Northeast 458 527 30,300 -1,560 Descending FlightAware ADS-B
03:59PM 38.5060 -76.8570 29° Northeast 448 516 28,300 -2,040 Descending FlightAware
03:59PM 38.5760 -76.8070 29° Northeast 444 511 26,700 -2,520 Descending FlightAware
04:00PM 38.6550 -76.7490 30° Northeast 433 498 24,800 -2,520 Descending FlightAware
04:01PM 38.7000 -76.6730 53° Northeast 401 461 23,200 -2,760 Descending FlightAware
04:01PM 38.7129 -76.6185 73° East 397 457 22,000 -2,940 Descending FlightAware ADS-B
04:01PM 38.7253 -76.5591 75° East 398 458 20,900 -2,040 Descending FlightAware ADS-B
04:02PM 38.7428 -76.4717 76° East 394 453 19,800 -1,740 Descending FlightAware ADS-B
04:03PM 38.7572 -76.4015 75° East 388 447 18,900 -1,440 Descending FlightAware ADS-B
04:03PM 38.7700 -76.3390 75° East 377 434 18,200 -1,440 Descending FlightAware
04:04PM 38.7843 -76.2694 75° East 379 436 17,500 -1,500 Descending FlightAware ADS-B
04:04PM 38.8030 -76.1860 74° East 369 425 16,500 -1,500 Descending FlightAware
04:05PM 38.8137 -76.1337 75° East 368 423 15,900 -1,500 Descending FlightAware ADS-B
04:05PM 38.8317 -76.0471 75° East 368 423 15,000 -780 Descending FlightAware ADS-B
04:06PM 38.8450 -75.9790 76° East 349 402 14,900 -180 Descending FlightAware
04:06PM 38.8500 -75.9562 74° East 350 403 14,900  Level FlightAware ADS-B
04:07PM 38.8636 -75.8870 76° East 356 410 14,900  Level FlightAware ADS-B
04:07PM 38.8691 -75.8597 75° East 356 410 14,900  Level FlightAware ADS-B
04:07PM 38.8748 -75.8402 69° East 360 414 14,900  Level FlightAware ADS-B
04:07PM 38.8787 -75.8307 62° Northeast 362 417 14,900 -360 Level FlightAware ADS-B
04:07PM 38.8919 -75.8084 53° Northeast 367 422 14,800 -1,020 Descending FlightAware ADS-B
04:08PM 38.9055 -75.7927 42° Northeast 375 432 14,500 -1,860 Descending FlightAware ADS-B
04:08PM 38.9237 -75.7765 35° Northeast 374 430 14,100 -1,800 Descending FlightAware ADS-B
04:08PM 38.9352 -75.7686 28° Northeast 373 429 13,900 -1,680 Descending FlightAware ADS-B
04:08PM 38.9807 -75.7460 21° North 375 432 13,100 -1,620 Descending FlightAware ADS-B
04:09PM 39.0100 -75.7416 North 376 433 12,700 -1,140 Descending FlightAware ADS-B
04:09PM 39.0361 -75.7408 North 373 429 12,500 -780 Descending FlightAware ADS-B
04:09PM 39.0665 -75.7418 359° North 372 428 12,300 -900 Descending FlightAware ADS-B
04:10PM 39.1046 -75.7367 North 375 432 11,900 -1,320 Descending FlightAware ADS-B
04:10PM 39.1226 -75.7310 14° North 372 428 11,600 -1,440 Descending FlightAware ADS-B
04:10PM 39.1463 -75.7204 19° North 361 415 11,300 -1,500 Descending FlightAware ADS-B
04:10PM 39.1604 -75.7118 25° Northeast 356 410 11,000 -1,860 Descending FlightAware ADS-B
04:11PM 39.2049 -75.6843 26° Northeast 344 396 10,100 -1,440 Descending FlightAware ADS-B
04:11PM 39.2262 -75.6706 26° Northeast 338 389 9,900 -420 Descending FlightAware ADS-B
04:11PM 39.2492 -75.6557 27° Northeast 314 361 9,900  Level FlightAware ADS-B
04:11PM 39.2686 -75.6422 28° Northeast 299 344 9,900  Level FlightAware ADS-B
04:12PM 39.2741 -75.6385 28° Northeast 298 343 9,900 -600 Level FlightAware ADS-B
04:12PM 39.2809 -75.6351 21° North 302 348 9,800 -1,320 Descending FlightAware ADS-B
04:12PM 39.2929 -75.6326 North 306 352 9,600 -1,200 Descending FlightAware ADS-B
04:12PM 39.3015 -75.6332 357° North 310 357 9,500 -1,080 Descending FlightAware ADS-B
04:12PM 39.3170 -75.6376 348° North 312 359 9,300 -1,440 Descending FlightAware ADS-B
04:12PM 39.3379 -75.6443 346° North 311 358 8,900 -1,560 Descending FlightAware ADS-B
04:13PM 39.3599 -75.6512 346° North 310 357 8,500 -1,380 Descending FlightAware ADS-B
04:13PM 39.3810 -75.6575 347° North 308 354 8,200 -1,020 Descending FlightAware ADS-B
04:13PM 39.4105 -75.6668 346° North 306 352 7,900 -540 Descending FlightAware ADS-B
04:13PM 39.4296 -75.6725 347° North 304 350 7,900 -420 Level FlightAware ADS-B
04:14PM 39.4526 -75.6781 349° North 298 343 7,700 -960 Descending FlightAware ADS-B
04:14PM 39.4729 -75.6840 347° North 297 342 7,400 -1,200 Descending FlightAware ADS-B
04:14PM 39.4934 -75.6898 348° North 295 339 7,100 -900 Descending FlightAware ADS-B
04:15PM 39.5201 -75.6967 349° North 295 339 6,900 -840 Descending FlightAware ADS-B
04:15PM 39.5410 -75.7015 350° North 294 338 6,600 -1,200 Descending FlightAware ADS-B
04:15PM 39.5532 -75.7036 352° North 292 336 6,400 -1,200 Descending FlightAware ADS-B
04:15PM 39.5753 -75.7054 356° North 290 334 6,100 -1,020 Descending FlightAware ADS-B
04:15PM 39.5954 -75.7068 357° North 286 329 5,900 -660 Descending FlightAware ADS-B
04:16PM 39.6007 -75.7068 360° North 284 327 5,900  Level FlightAware ADS-B
04:16PM 39.6090 -75.7051 North 278 320 5,900  Level FlightAware ADS-B
04:16PM 39.6175 -75.7010 20° North 273 314 5,900 -300 Level FlightAware ADS-B
04:16PM 39.6351 -75.6903 25° Northeast 270 311 5,800 -1,020 Descending FlightAware ADS-B
04:16PM 39.6527 -75.6797 25° Northeast 267 307 5,400 -1,740 Descending FlightAware ADS-B
04:17PM 39.6707 -75.6694 24° Northeast 265 305 4,900 -1,860 Descending FlightAware ADS-B
04:17PM 39.6819 -75.6630 24° Northeast 265 305 4,600 -2,160 Descending FlightAware ADS-B
04:17PM 39.6867 -75.6598 27° Northeast 262 302 4,400 -2,040 Descending FlightAware ADS-B
04:17PM 39.6915 -75.6553 36° Northeast 258 297 4,300 -1,200 Descending FlightAware ADS-B
04:17PM 39.6955 -75.6507 42° Northeast 255 293 4,200 -1,380 Descending FlightAware ADS-B
04:17PM 39.7066 -75.6359 46° Northeast 250 288 3,900 -660 Descending FlightAware ADS-B
04:17PM 39.7190 -75.6201 44° Northeast 238 274 3,900  Level FlightAware ADS-B
04:18PM 39.7326 -75.6031 44° Northeast 221 254 3,900  Level FlightAware ADS-B
04:18PM 39.7441 -75.5892 43° Northeast 202 232 3,900  Level FlightAware ADS-B
04:18PM 39.7508 -75.5813 42° Northeast 190 219 3,900  Level FlightAware ADS-B
04:18PM 39.7585 -75.5722 42° Northeast 186 214 3,900  Level FlightAware ADS-B
04:18PM 39.7648 -75.5650 41° Northeast 186 214 3,900  Level FlightAware ADS-B
04:19PM 39.7693 -75.5612 33° Northeast 190 219 3,900 -540 Level FlightAware ADS-B
04:19PM 39.7738 -75.5582 27° Northeast 192 221 3,800 -720 Descending FlightAware ADS-B
04:19PM 39.7767 -75.5566 23° Northeast 192 221 3,800 -480 Level FlightAware ADS-B
04:19PM 39.7852 -75.5521 22° Northeast 192 221 3,700 -840 Descending FlightAware ADS-B
04:19PM 39.7889 -75.5501 23° Northeast 191 220 3,600 -1,020 Descending FlightAware ADS-B
04:19PM 39.7942 -75.5464 28° Northeast 187 215 3,500 -1,320 Descending FlightAware ADS-B
04:19PM 39.7997 -75.5420 32° Northeast 184 212 3,300 -1,500 Descending FlightAware ADS-B
04:19PM 39.8026 -75.5386 42° Northeast 179 206 3,200 -720 Descending FlightAware ADS-B
04:19PM 39.8047 -75.5355 49° Northeast 175 201 3,200 -900 Level FlightAware ADS-B
04:19PM 39.8057 -75.5327 65° Northeast 171 197 3,100 -1,740 Descending FlightAware ADS-B
04:20PM 39.8069 -75.5281 71° East 165 190 3,000 -1,140 Descending FlightAware ADS-B
04:20PM 39.8069 -75.5216 90° East 160 184 2,900 -360 Descending FlightAware ADS-B
04:20PM 39.8058 -75.5111 98° East 163 188 2,900  Level FlightAware ADS-B
04:20PM 39.8053 -75.5017 94° East 164 189 2,900  Level FlightAware ADS-B
04:20PM 39.8053 -75.4974 90° East 165 190 2,900  Level FlightAware ADS-B
04:20PM 39.8058 -75.4923 83° East 166 191 2,900  Level FlightAware ADS-B
04:20PM 39.8065 -75.4878 79° East 169 194 2,900  Level FlightAware ADS-B
04:20PM 39.8100 -75.4730 73° East 163 188 2,900  Level FlightAware ADS-B
04:21PM 39.8117 -75.4648 75° East 159 183 2,900 -540 Level FlightAware ADS-B
04:21PM 39.8146 -75.4509 75° East 158 182 2,700 -840 Descending FlightAware ADS-B
04:21PM 39.8175 -75.4371 75° East 156 180 2,500 -840 Descending FlightAware ADS-B
04:21PM 39.8203 -75.4237 75° East 153 176 2,300 -720 Descending FlightAware ADS-B
04:22PM 39.8220 -75.4153 75° East 153 176 2,200 -720 Descending FlightAware ADS-B
04:22PM 39.8234 -75.4085 75° East 155 178 2,100 -1,080 Descending FlightAware ADS-B
04:22PM 39.8263 -75.3944 75° East 154 177 1,800 -1,020 Descending FlightAware ADS-B
04:22PM 39.8292 -75.3810 74° East 150 173 1,600 -840 Descending FlightAware ADS-B
04:22PM 39.8316 -75.3693 75° East 139 160 1,400 -780 Descending FlightAware ADS-B
04:23PM 39.8345 -75.3551 75° East 123 142 1,200 -540 Descending FlightAware ADS-B
04:23PM 39.8371 -75.3431 74° East 117 135 1,100 -540 Descending FlightAware ADS-B
04:23PM 39.8394 -75.3316 75° East 118 136 900 -600 Descending FlightAware ADS-B
04:23PM 39.8410 -75.3226 77° East 118 136 800 -660 Descending FlightAware ADS-B
04:24PM 39.8435 -75.3118 73° East 120 138 600 -840 Descending FlightAware ADS-B
04:24PM 39.8467 -75.2962 75° East 119 137 300 -840 Descending FlightAware ADS-B
04:25PM 39.8520 -75.2720 74° East 125 144 -420 Descending FlightAware